createdAt,value
2017-05-16T00:01:41.298Z,15.60
2017-05-16T00:04:10.581Z,15.60
2017-05-16T00:06:39.594Z,15.60
2017-05-16T00:09:08.221Z,15.50
2017-05-16T00:11:37.150Z,15.50
2017-05-16T00:14:06.154Z,15.40
2017-05-16T00:16:34.795Z,15.50
2017-05-16T00:19:03.621Z,15.40
2017-05-16T00:21:32.260Z,15.40
2017-05-16T00:24:00.493Z,15.40
2017-05-16T00:26:29.856Z,15.30
2017-05-16T00:28:58.496Z,15.40
2017-05-16T00:31:27.133Z,15.50
2017-05-16T00:33:56.167Z,15.40
2017-05-16T00:36:24.797Z,15.40
2017-05-16T00:38:53.797Z,15.40
2017-05-16T00:41:22.914Z,15.30
2017-05-16T00:43:51.546Z,15.40
2017-05-16T00:46:20.181Z,15.30
2017-05-16T00:48:49.729Z,15.20
2017-05-16T00:51:17.973Z,15.30
2017-05-16T00:53:46.606Z,15.30
2017-05-16T00:56:15.282Z,15.30
2017-05-16T00:58:43.909Z,15.30
2017-05-16T01:01:12.547Z,15.30
2017-05-16T01:03:41.214Z,15.30
2017-05-16T01:06:10.195Z,15.30
2017-05-16T01:08:38.806Z,15.20
2017-05-16T01:11:07.555Z,15.20
2017-05-16T01:13:36.180Z,15.30
2017-05-16T01:16:05.186Z,15.30
2017-05-16T01:18:34.224Z,15.40
2017-05-16T01:21:02.857Z,15.40
2017-05-16T01:23:31.866Z,15.30
2017-05-16T01:26:00.535Z,15.30
2017-05-16T01:28:28.778Z,15.30
2017-05-16T01:30:57.409Z,15.20
2017-05-16T01:33:26.165Z,15.40
2017-05-16T01:35:54.398Z,15.40
2017-05-16T01:38:23.033Z,15.30
2017-05-16T01:40:51.381Z,15.30
2017-05-16T01:43:20.014Z,15.30
2017-05-16T01:45:48.650Z,15.30
2017-05-16T01:48:17.318Z,15.30
2017-05-16T01:50:45.949Z,15.20
2017-05-16T01:53:15.086Z,15.10
2017-05-16T01:55:43.736Z,15.10
2017-05-16T01:58:12.376Z,15.10
2017-05-16T02:00:41.006Z,15.20
2017-05-16T02:03:09.677Z,15.20
2017-05-16T02:05:38.316Z,15.20
2017-05-16T02:08:06.953Z,15.10
2017-05-16T02:10:35.890Z,15.20
2017-05-16T02:13:06.458Z,15.10
2017-05-16T02:15:35.367Z,15.20
2017-05-16T02:18:04.007Z,15.20
2017-05-16T02:20:32.648Z,15.30
2017-05-16T02:23:01.328Z,15.40
2017-05-16T02:25:29.570Z,15.40
2017-05-16T02:27:58.207Z,15.30
2017-05-16T02:30:27.232Z,15.30
2017-05-16T02:32:55.480Z,15.30
2017-05-16T02:35:24.107Z,15.20
2017-05-16T02:37:53.573Z,15.30
2017-05-16T02:40:22.220Z,15.20
2017-05-16T02:42:50.851Z,15.20
2017-05-16T02:45:19.902Z,15.20
2017-05-16T02:47:48.545Z,14.90
2017-05-16T02:50:17.186Z,14.90
2017-05-16T02:52:46.218Z,14.90
2017-05-16T02:55:15.549Z,14.70
2017-05-16T02:57:44.191Z,14.50
2017-05-16T03:00:13.235Z,14.50
2017-05-16T03:02:41.871Z,14.30
2017-05-16T03:05:10.878Z,14.20
2017-05-16T03:07:39.553Z,14.10
2017-05-16T03:10:08.191Z,14.10
2017-05-16T03:12:36.831Z,13.90
2017-05-16T03:15:05.518Z,13.90
2017-05-16T03:17:34.155Z,13.90
2017-05-16T03:20:02.798Z,13.80
2017-05-16T03:22:31.225Z,13.80
2017-05-16T03:24:59.853Z,13.80
2017-05-16T03:27:28.249Z,13.80
2017-05-16T03:29:56.930Z,13.80
2017-05-16T03:32:25.566Z,13.90
2017-05-16T03:34:54.538Z,13.90
2017-05-16T03:37:23.206Z,13.80
2017-05-16T03:39:51.845Z,13.90
2017-05-16T03:42:20.090Z,13.90
2017-05-16T03:44:49.119Z,13.80
2017-05-16T03:47:17.763Z,13.70
2017-05-16T03:49:46.767Z,13.50
2017-05-16T03:52:15.325Z,13.50
2017-05-16T03:54:43.963Z,13.70
2017-05-16T03:57:12.603Z,13.50
2017-05-16T03:59:40.878Z,13.50
2017-05-16T04:02:09.117Z,13.60
2017-05-16T04:04:37.755Z,13.60
2017-05-16T04:07:06.014Z,13.60
2017-05-16T04:09:34.255Z,13.60
2017-05-16T04:12:02.887Z,13.70
2017-05-16T04:14:31.451Z,13.70
2017-05-16T04:17:00.459Z,13.80
2017-05-16T04:19:29.098Z,13.70
2017-05-16T04:21:57.773Z,13.70
2017-05-16T04:24:26.415Z,13.90
2017-05-16T04:26:55.050Z,14.00
2017-05-16T04:29:24.070Z,14.10
2017-05-16T04:31:52.314Z,14.10
2017-05-16T04:34:20.951Z,13.90
2017-05-16T04:36:49.706Z,13.90
2017-05-16T04:39:18.715Z,14.10
2017-05-16T04:41:47.650Z,14.10
2017-05-16T04:44:16.645Z,14.10
2017-05-16T04:46:45.278Z,13.90
2017-05-16T04:49:13.914Z,13.80
2017-05-16T04:51:43.071Z,13.80
2017-05-16T04:54:11.313Z,13.80
2017-05-16T04:56:40.325Z,13.70
2017-05-16T04:59:09.081Z,13.80
2017-05-16T05:01:38.246Z,13.90
2017-05-16T05:04:06.886Z,13.90
2017-05-16T05:06:35.134Z,13.90
2017-05-16T05:09:05.054Z,14.00
2017-05-16T05:11:34.068Z,14.00
2017-05-16T05:14:02.768Z,14.10
2017-05-16T05:16:31.975Z,14.10
2017-05-16T05:19:00.623Z,14.10
2017-05-16T05:21:29.274Z,14.10
2017-05-16T05:23:58.332Z,14.10
2017-05-16T05:26:26.970Z,14.00
2017-05-16T05:28:55.987Z,14.10
2017-05-16T05:31:24.955Z,14.10
2017-05-16T05:33:53.598Z,14.30
2017-05-16T05:36:23.122Z,14.30
2017-05-16T05:38:52.438Z,14.20
2017-05-16T05:41:21.451Z,14.20
2017-05-16T05:43:50.089Z,14.20
2017-05-16T05:46:18.771Z,14.10
2017-05-16T05:48:47.497Z,14.10
2017-05-16T05:51:15.734Z,14.10
2017-05-16T05:53:44.586Z,14.10
2017-05-16T05:56:13.226Z,14.20
2017-05-16T05:58:42.241Z,14.20
2017-05-16T06:01:10.924Z,14.00
2017-05-16T06:03:39.574Z,13.90
2017-05-16T06:06:08.589Z,14.00
2017-05-16T06:08:37.246Z,14.20
2017-05-16T06:11:06.600Z,14.10
2017-05-16T06:13:35.252Z,14.20
2017-05-16T06:16:03.526Z,14.20
2017-05-16T06:18:32.289Z,14.40
2017-05-16T06:21:01.298Z,14.30
2017-05-16T06:23:29.998Z,14.30
2017-05-16T06:25:58.248Z,14.30
2017-05-16T06:28:26.951Z,14.10
2017-05-16T06:30:56.331Z,14.10
2017-05-16T06:33:25.348Z,14.10
2017-05-16T06:35:53.991Z,14.20
2017-05-16T06:38:22.268Z,14.20
2017-05-16T06:40:50.518Z,14.20
2017-05-16T06:43:19.166Z,14.20
2017-05-16T06:45:47.859Z,14.40
2017-05-16T06:48:16.197Z,14.40
2017-05-16T06:50:45.286Z,14.60
2017-05-16T06:53:13.588Z,14.50
2017-05-16T06:55:42.231Z,14.40
2017-05-16T06:58:10.879Z,14.50
2017-05-16T07:00:41.013Z,14.40
2017-05-16T07:03:09.705Z,14.30
2017-05-16T07:05:38.377Z,14.20
2017-05-16T07:08:07.082Z,14.30
2017-05-16T07:10:35.736Z,14.30
2017-05-16T07:13:04.644Z,14.30
2017-05-16T07:15:33.572Z,14.40
2017-05-16T07:18:02.279Z,14.50
2017-05-16T07:20:30.594Z,14.60
2017-05-16T07:22:59.283Z,14.50
2017-05-16T07:25:28.046Z,14.40
2017-05-16T07:27:57.635Z,14.50
2017-05-16T07:30:26.291Z,14.40
2017-05-16T07:32:54.939Z,14.40
2017-05-16T07:35:23.658Z,14.40
2017-05-16T07:37:52.458Z,14.50
2017-05-16T07:40:21.159Z,14.60
2017-05-16T07:42:49.832Z,14.60
2017-05-16T07:45:18.527Z,14.50
2017-05-16T07:47:47.203Z,14.60
2017-05-16T07:50:15.869Z,14.70
2017-05-16T07:52:44.582Z,14.60
2017-05-16T07:55:13.054Z,14.60
2017-05-16T07:57:41.786Z,14.80
2017-05-16T08:00:10.321Z,14.80
2017-05-16T08:02:38.973Z,14.60
2017-05-16T08:05:07.626Z,14.70
2017-05-16T08:07:36.291Z,14.60
2017-05-16T08:10:05.271Z,14.50
2017-05-16T08:12:34.830Z,14.50
2017-05-16T08:15:03.845Z,14.40
2017-05-16T08:17:32.551Z,14.30
2017-05-16T08:20:01.521Z,14.30
2017-05-16T08:22:30.216Z,14.30
2017-05-16T08:24:58.843Z,14.40
2017-05-16T08:27:27.499Z,14.30
2017-05-16T08:29:56.584Z,14.40
2017-05-16T08:32:25.218Z,14.40
2017-05-16T08:34:54.866Z,14.50
2017-05-16T08:37:23.537Z,14.40
2017-05-16T08:39:52.194Z,14.30
2017-05-16T08:42:21.369Z,14.30
2017-05-16T08:44:50.688Z,14.20
2017-05-16T08:47:19.904Z,14.20
2017-05-16T08:49:49.239Z,14.20
2017-05-16T08:52:17.906Z,14.20
2017-05-16T08:54:46.177Z,14.20
2017-05-16T08:57:15.168Z,14.00
2017-05-16T08:59:44.334Z,14.00
2017-05-16T09:02:13.285Z,14.10
2017-05-16T09:04:41.935Z,13.90
2017-05-16T09:07:10.946Z,13.90
2017-05-16T09:09:39.588Z,13.80
2017-05-16T09:12:08.237Z,13.80
2017-05-16T09:14:37.254Z,13.80
2017-05-16T09:17:05.520Z,13.80
2017-05-16T09:19:34.544Z,13.80
2017-05-16T09:22:03.411Z,13.60
2017-05-16T09:24:32.056Z,13.60
2017-05-16T09:27:00.707Z,13.60
2017-05-16T09:29:29.383Z,13.70
2017-05-16T09:31:57.635Z,13.70
2017-05-16T09:34:26.305Z,13.70
2017-05-16T09:36:55.453Z,13.60
2017-05-16T09:39:24.107Z,13.60
2017-05-16T09:41:53.242Z,13.60
2017-05-16T09:44:22.013Z,13.80
2017-05-16T09:46:50.677Z,13.80
2017-05-16T09:49:18.926Z,13.80
2017-05-16T09:51:48.067Z,13.70
2017-05-16T09:54:16.743Z,13.80
2017-05-16T09:56:45.431Z,13.80
2017-05-16T09:59:14.208Z,13.90
2017-05-16T10:01:42.859Z,13.90
2017-05-16T10:04:11.526Z,13.90
2017-05-16T10:06:39.953Z,13.90
2017-05-16T10:09:08.603Z,13.80
2017-05-16T10:11:38.392Z,13.90
2017-05-16T10:14:07.352Z,13.80
2017-05-16T10:16:36.008Z,13.80
2017-05-16T10:19:04.651Z,13.90
2017-05-16T10:21:33.871Z,14.10
2017-05-16T10:24:02.543Z,13.90
2017-05-16T10:26:31.566Z,14.00
2017-05-16T10:29:00.436Z,14.10
2017-05-16T10:31:29.087Z,14.10
2017-05-16T10:33:57.746Z,14.10
2017-05-16T10:36:26.632Z,14.20
2017-05-16T10:38:55.429Z,14.20
2017-05-16T10:41:24.283Z,14.20
2017-05-16T10:43:54.310Z,14.30
2017-05-16T10:46:22.565Z,14.30
2017-05-16T10:48:51.241Z,14.30
2017-05-16T10:51:19.815Z,14.30
2017-05-16T10:53:48.069Z,14.30
2017-05-16T10:56:16.719Z,14.50
2017-05-16T10:58:45.676Z,14.40
2017-05-16T11:01:14.326Z,14.40
2017-05-16T11:03:43.363Z,14.50
2017-05-16T11:06:12.027Z,14.50
2017-05-16T11:08:40.679Z,14.60
2017-05-16T11:11:09.332Z,14.70
2017-05-16T11:13:38.021Z,14.70
2017-05-16T11:16:06.665Z,14.50
2017-05-16T11:18:35.315Z,14.40
2017-05-16T11:21:04.009Z,14.30
2017-05-16T11:23:32.274Z,14.30
2017-05-16T11:26:01.440Z,14.20
2017-05-16T11:28:30.118Z,14.30
2017-05-16T11:30:58.787Z,14.20
2017-05-16T11:33:27.446Z,14.30
2017-05-16T11:35:56.302Z,14.30
2017-05-16T11:38:24.954Z,14.30
2017-05-16T11:40:54.855Z,14.30
2017-05-16T11:43:23.814Z,14.30
2017-05-16T11:45:52.476Z,14.40
2017-05-16T11:48:21.495Z,14.30
2017-05-16T11:50:50.175Z,14.40
2017-05-16T11:53:18.818Z,14.40
2017-05-16T11:55:47.091Z,14.50
2017-05-16T11:58:15.797Z,14.50
2017-05-16T12:00:44.813Z,14.60
2017-05-16T12:03:13.073Z,14.60
2017-05-16T12:05:42.125Z,14.60
2017-05-16T12:08:10.789Z,14.60
2017-05-16T12:10:39.449Z,14.60
2017-05-16T12:13:08.126Z,14.60
2017-05-16T12:15:36.774Z,14.70
2017-05-16T12:18:05.025Z,14.70
2017-05-16T12:20:33.967Z,14.70
2017-05-16T12:23:02.680Z,14.70
2017-05-16T12:25:31.558Z,14.70
2017-05-16T12:28:00.598Z,14.80
2017-05-16T12:30:29.278Z,14.70
2017-05-16T12:32:58.082Z,14.70
2017-05-16T12:35:26.890Z,14.80
2017-05-16T12:37:55.560Z,14.90
2017-05-16T12:40:24.808Z,14.90
2017-05-16T12:42:53.661Z,14.90
2017-05-16T12:45:21.915Z,15.00
2017-05-16T12:47:50.946Z,14.90
2017-05-16T12:50:19.734Z,14.90
2017-05-16T12:52:48.387Z,14.90
2017-05-16T12:55:17.421Z,14.80
2017-05-16T12:57:46.075Z,14.80
2017-05-16T13:00:14.331Z,14.90
2017-05-16T13:02:43.966Z,15.00
2017-05-16T13:05:12.942Z,14.90
2017-05-16T13:07:41.679Z,15.00
2017-05-16T13:10:10.660Z,15.00
2017-05-16T13:12:39.351Z,15.00
2017-05-16T13:15:08.003Z,15.00
2017-05-16T13:17:36.269Z,15.00
2017-05-16T13:20:04.972Z,15.10
2017-05-16T13:22:33.874Z,15.20
2017-05-16T13:25:02.540Z,15.30
2017-05-16T13:27:30.793Z,15.30
2017-05-16T13:29:59.441Z,15.20
2017-05-16T13:32:28.098Z,15.30
2017-05-16T13:34:56.956Z,15.30
2017-05-16T13:37:25.622Z,15.30
2017-05-16T13:39:54.269Z,15.30
2017-05-16T13:42:22.981Z,15.30
2017-05-16T13:44:52.465Z,15.40
2017-05-16T13:47:21.113Z,15.30
2017-05-16T13:49:50.064Z,15.40
2017-05-16T13:52:19.701Z,15.40
2017-05-16T13:54:47.987Z,15.40
2017-05-16T13:57:16.998Z,15.60
2017-05-16T13:59:46.105Z,15.60
2017-05-16T14:02:14.791Z,15.60
2017-05-16T14:04:43.818Z,15.60
2017-05-16T14:07:12.901Z,15.60
2017-05-16T14:09:41.546Z,15.50
2017-05-16T14:12:10.469Z,15.60
2017-05-16T14:14:38.748Z,15.60
2017-05-16T14:17:07.016Z,15.70
2017-05-16T14:19:35.317Z,15.70
2017-05-16T14:22:03.963Z,15.70
2017-05-16T14:24:32.233Z,15.70
2017-05-16T14:27:01.010Z,15.70
2017-05-16T14:29:29.974Z,15.70
2017-05-16T14:31:58.629Z,15.60
2017-05-16T14:34:26.907Z,15.60
2017-05-16T14:36:55.162Z,15.60
2017-05-16T14:39:23.828Z,15.70
2017-05-16T14:41:52.614Z,15.70
2017-05-16T14:44:21.616Z,15.70
2017-05-16T14:46:50.631Z,15.70
2017-05-16T14:49:19.316Z,15.70
2017-05-16T14:51:48.360Z,15.80
2017-05-16T14:54:17.021Z,15.70
2017-05-16T14:56:46.834Z,15.60
2017-05-16T14:59:15.500Z,15.70
2017-05-16T15:01:44.146Z,15.70
2017-05-16T15:04:13.210Z,15.60
2017-05-16T15:06:41.864Z,15.60
2017-05-16T15:09:10.124Z,15.60
2017-05-16T15:11:39.366Z,15.70
2017-05-16T15:14:08.020Z,15.60
2017-05-16T15:16:36.663Z,15.60
2017-05-16T15:19:05.461Z,15.60
2017-05-16T15:21:34.126Z,15.70
2017-05-16T15:24:03.158Z,15.70
2017-05-16T15:26:32.092Z,15.70
2017-05-16T15:29:00.742Z,15.80
2017-05-16T15:31:29.414Z,15.90
2017-05-16T15:33:58.304Z,15.90
2017-05-16T15:36:27.586Z,16.00
2017-05-16T15:38:57.023Z,16.00
2017-05-16T15:41:25.715Z,15.80
2017-05-16T15:43:54.374Z,16.00
2017-05-16T15:46:23.220Z,16.00
2017-05-16T15:48:51.718Z,16.00
2017-05-16T15:51:19.965Z,16.00
2017-05-16T15:53:50.052Z,16.20
2017-05-16T15:56:18.823Z,16.20
2017-05-16T15:58:47.464Z,16.20
2017-05-16T16:01:16.350Z,16.20
2017-05-16T16:03:45.425Z,16.20
2017-05-16T16:06:14.151Z,16.20
2017-05-16T16:08:42.540Z,16.20
2017-05-16T16:11:10.894Z,16.30
2017-05-16T16:13:39.171Z,16.30
2017-05-16T16:16:07.819Z,16.30
2017-05-16T16:18:36.194Z,16.30
2017-05-16T16:21:04.750Z,16.40
2017-05-16T16:23:33.390Z,16.30
2017-05-16T16:26:02.069Z,16.30
2017-05-16T16:28:30.867Z,16.30
2017-05-16T16:30:59.865Z,16.30
2017-05-16T16:33:28.660Z,16.20
2017-05-16T16:35:57.325Z,16.20
2017-05-16T16:38:26.605Z,16.20
2017-05-16T16:40:56.218Z,16.20
2017-05-16T16:43:25.230Z,16.20
2017-05-16T16:45:54.815Z,16.20
2017-05-16T16:48:24.433Z,16.10
2017-05-16T16:50:53.103Z,16.10
2017-05-16T16:53:21.767Z,16.10
2017-05-16T16:55:50.702Z,16.10
2017-05-16T16:58:19.365Z,16.00
2017-05-16T17:00:48.027Z,16.00
2017-05-16T17:03:17.353Z,16.00
2017-05-16T17:05:46.467Z,16.00
2017-05-16T17:08:14.710Z,16.00
2017-05-16T17:10:43.018Z,16.10
2017-05-16T17:13:11.290Z,16.10
2017-05-16T17:15:39.943Z,16.00
2017-05-16T17:18:08.318Z,16.00
2017-05-16T17:20:36.974Z,16.10
2017-05-16T17:23:05.625Z,16.00
2017-05-16T17:25:34.017Z,16.00
2017-05-16T17:28:02.692Z,16.00
2017-05-16T17:30:31.367Z,16.10
2017-05-16T17:32:59.816Z,16.10
2017-05-16T17:35:28.829Z,16.10
2017-05-16T17:37:57.837Z,16.10
2017-05-16T17:40:27.538Z,16.00
2017-05-16T17:42:56.169Z,16.10
2017-05-16T17:45:25.178Z,16.10
2017-05-16T17:47:54.193Z,16.10
2017-05-16T17:50:22.850Z,16.10
2017-05-16T17:52:51.122Z,16.10
2017-05-16T17:55:20.132Z,16.10
2017-05-16T17:57:48.802Z,16.10
2017-05-16T18:00:17.933Z,16.10
2017-05-16T18:02:46.635Z,16.10
2017-05-16T18:05:15.326Z,16.10
2017-05-16T18:07:45.203Z,16.10
2017-05-16T18:10:14.062Z,16.10
2017-05-16T18:12:42.733Z,16.10
2017-05-16T18:15:12.075Z,16.00
2017-05-16T18:17:40.825Z,16.00
2017-05-16T18:20:09.211Z,16.00
2017-05-16T18:22:38.757Z,16.00
2017-05-16T18:25:07.586Z,16.00
2017-05-16T18:27:37.436Z,16.00
2017-05-16T18:30:06.320Z,15.90
2017-05-16T18:32:35.021Z,16.00
2017-05-16T18:35:03.814Z,16.00
2017-05-16T18:37:33.140Z,16.00
2017-05-16T18:40:02.471Z,16.00
2017-05-16T18:42:31.871Z,16.00
2017-05-16T18:45:02.016Z,15.90
2017-05-16T18:47:31.181Z,16.00
2017-05-16T18:50:00.814Z,16.00
2017-05-16T18:52:29.852Z,16.00
2017-05-16T18:54:59.758Z,15.90
2017-05-16T18:57:28.555Z,15.90
2017-05-16T18:59:57.721Z,15.90
2017-05-16T19:02:27.697Z,15.80
2017-05-16T19:04:56.916Z,15.80
2017-05-16T19:07:25.696Z,15.80
2017-05-16T19:09:54.843Z,15.80
2017-05-16T19:12:24.662Z,15.80
2017-05-16T19:14:53.782Z,15.90
2017-05-16T19:17:24.590Z,15.80
2017-05-16T19:19:54.349Z,15.80
2017-05-16T19:22:24.299Z,15.80
2017-05-16T19:24:53.528Z,15.80
2017-05-16T19:27:22.989Z,15.80
2017-05-16T19:29:52.427Z,15.80
2017-05-16T19:32:22.985Z,15.70
2017-05-16T19:34:52.904Z,15.70
2017-05-16T19:37:22.126Z,15.80
2017-05-16T19:39:51.262Z,15.70
2017-05-16T19:42:20.950Z,15.70
2017-05-16T19:44:50.224Z,15.70
2017-05-16T19:47:19.714Z,15.70
2017-05-16T19:49:48.835Z,15.70
2017-05-16T19:52:18.200Z,15.70
2017-05-16T19:54:47.442Z,15.60
2017-05-16T19:57:17.438Z,15.60
2017-05-16T19:59:47.123Z,15.70
2017-05-16T20:02:16.748Z,15.70
2017-05-16T20:04:45.875Z,15.60
2017-05-16T20:07:14.714Z,15.60
2017-05-16T20:09:43.838Z,15.60
2017-05-16T20:12:12.878Z,15.70
2017-05-16T20:14:42.283Z,15.60
2017-05-16T20:17:11.309Z,15.60
2017-05-16T20:19:40.682Z,15.60
2017-05-16T20:22:10.072Z,15.60
2017-05-16T20:24:39.511Z,15.60
2017-05-16T20:27:08.599Z,15.60
2017-05-16T20:29:37.661Z,15.60
2017-05-16T20:32:06.616Z,15.70
2017-05-16T20:34:35.928Z,15.60
2017-05-16T20:37:04.899Z,15.60
2017-05-16T20:39:33.761Z,15.60
2017-05-16T20:42:02.432Z,15.60
2017-05-16T20:44:31.155Z,15.60
2017-05-16T20:47:00.329Z,15.60
2017-05-16T20:49:29.486Z,15.60
2017-05-16T20:51:59.169Z,15.60
2017-05-16T20:54:27.858Z,15.60
2017-05-16T20:56:56.616Z,15.60
2017-05-16T20:59:25.649Z,15.60
2017-05-16T21:01:54.318Z,15.60
2017-05-16T21:04:22.714Z,15.60
2017-05-16T21:06:50.975Z,15.60
2017-05-16T21:09:19.711Z,15.60
2017-05-16T21:11:48.222Z,15.60
2017-05-16T21:14:16.874Z,15.60
2017-05-16T21:16:45.543Z,15.60
2017-05-16T21:19:14.469Z,15.60
2017-05-16T21:21:43.509Z,15.60
2017-05-16T21:24:11.761Z,15.60
2017-05-16T21:26:40.447Z,15.60
2017-05-16T21:29:09.098Z,15.60
2017-05-16T21:31:38.154Z,15.70
2017-05-16T21:34:07.999Z,15.60
2017-05-16T21:36:37.051Z,15.60
2017-05-16T21:39:06.214Z,15.60
2017-05-16T21:41:34.892Z,15.60
2017-05-16T21:44:03.839Z,15.60
2017-05-16T21:46:32.491Z,15.70
2017-05-16T21:49:00.789Z,15.70
2017-05-16T21:51:29.453Z,15.60
2017-05-16T21:53:58.100Z,15.60
2017-05-16T21:56:26.770Z,15.50
2017-05-16T21:58:55.789Z,15.60
2017-05-16T22:01:24.798Z,15.60
2017-05-16T22:03:53.487Z,15.60
2017-05-16T22:06:22.148Z,15.60
2017-05-16T22:08:50.798Z,15.60
2017-05-16T22:11:19.922Z,15.60
2017-05-16T22:13:48.583Z,15.60
2017-05-16T22:16:16.843Z,15.60
2017-05-16T22:18:45.506Z,15.50
2017-05-16T22:21:14.461Z,15.50
2017-05-16T22:23:43.115Z,15.60
2017-05-16T22:26:12.177Z,15.60
2017-05-16T22:28:40.833Z,15.50
2017-05-16T22:31:09.486Z,15.50
2017-05-16T22:33:38.485Z,15.50
2017-05-16T22:36:07.157Z,15.50
2017-05-16T22:38:35.429Z,15.50
2017-05-16T22:41:04.337Z,15.60
2017-05-16T22:43:32.585Z,15.60
2017-05-16T22:46:01.603Z,15.50
2017-05-16T22:48:29.900Z,15.50
2017-05-16T22:50:58.546Z,15.50
2017-05-16T22:53:27.198Z,15.50
2017-05-16T22:55:55.880Z,15.50
2017-05-16T22:58:24.539Z,15.60
2017-05-16T23:00:53.206Z,15.60
2017-05-16T23:03:21.894Z,15.60
2017-05-16T23:05:50.172Z,15.60
2017-05-16T23:08:18.432Z,15.60
2017-05-16T23:10:47.272Z,15.60
2017-05-16T23:13:16.816Z,15.60
2017-05-16T23:15:45.453Z,15.60
2017-05-16T23:18:14.143Z,15.60
2017-05-16T23:20:42.805Z,15.60
2017-05-16T23:23:11.454Z,15.60
2017-05-16T23:25:40.432Z,15.60
2017-05-16T23:28:08.678Z,15.60
2017-05-16T23:30:37.332Z,15.60
2017-05-16T23:33:06.091Z,15.60
2017-05-16T23:35:34.741Z,15.60
2017-05-16T23:38:03.391Z,15.60
2017-05-16T23:40:32.077Z,15.60
2017-05-16T23:43:00.722Z,15.60
2017-05-16T23:45:29.383Z,15.60
2017-05-16T23:47:58.378Z,15.60
2017-05-16T23:50:26.648Z,15.60
2017-05-16T23:52:54.904Z,15.60
2017-05-16T23:55:23.672Z,15.60
2017-05-16T23:57:52.328Z,15.60
